Terminal Aerodrome Forecast
Issued by NWS

Home | Current Version | Previous Version | Graphics & Text | Print | Product List | Glossary On
Versions: 1 2 3 4 5 6 7 8 9 10 11 12
600
FTUS43 KICT 050536
TAFHUT
TAF
KHUT 050536Z 0506/0606 VRB05KT P6SM OVC250
     FM051500 VRB05KT P6SM SCT120 OVC200
     FM052000 23010KT P6SM BKN120
     FM060000 30010KT P6SM SCT035 OVC100
     FM060200 33012G18KT P6SM BKN035 OVC100=

USA.gov is the U.S. government's official web portal to all federal, state and local government web resources and services.